createdAt,value
2023-01-03T00:02:18.572Z,10.05
2023-01-03T00:04:49.390Z,18.85
2023-01-03T00:07:33.546Z,9.20
2023-01-03T00:10:05.744Z,8.35
2023-01-03T00:12:32.333Z,10.90
2023-01-03T00:14:59.632Z,10.57
2023-01-03T00:17:26.044Z,8.88
2023-01-03T00:19:52.486Z,9.10
2023-01-03T00:22:19.009Z,10.55
2023-01-03T00:24:46.708Z,12.50
2023-01-03T00:27:13.586Z,13.57
2023-01-03T00:29:40.243Z,11.65
2023-01-03T00:32:06.720Z,11.10
2023-01-03T00:34:34.345Z,12.00
2023-01-03T00:37:01.166Z,11.02
2023-01-03T00:39:27.762Z,12.88
2023-01-03T00:41:54.539Z,12.18
2023-01-03T00:44:21.355Z,16.30
2023-01-03T00:46:47.774Z,13.27
2023-01-03T00:49:14.154Z,11.40
2023-01-03T00:51:41.300Z,13.23
2023-01-03T00:54:09.285Z,15.30
2023-01-03T00:56:38.518Z,11.93
2023-01-03T00:59:06.222Z,14.50
2023-01-03T01:01:45.908Z,13.15
2023-01-03T01:04:20.887Z,14.23
2023-01-03T01:06:50.161Z,10.95
2023-01-03T01:09:23.146Z,12.03
2023-01-03T01:11:50.289Z,11.93
2023-01-03T01:14:22.390Z,13.30
2023-01-03T01:16:51.923Z,13.43
2023-01-03T01:19:21.347Z,12.38
2023-01-03T01:21:47.895Z,9.67
2023-01-03T01:24:17.961Z,11.30
2023-01-03T01:26:45.270Z,9.82
2023-01-03T01:29:13.061Z,14.60
2023-01-03T01:31:40.229Z,10.15
2023-01-03T01:34:07.164Z,10.03
2023-01-03T01:36:37.533Z,9.23
2023-01-03T01:39:06.746Z,11.48
2023-01-03T01:41:53.801Z,11.85
2023-01-03T01:44:41.700Z,9.93
2023-01-03T01:47:28.833Z,11.30
2023-01-03T01:50:07.170Z,11.27
2023-01-03T01:52:36.445Z,11.73
2023-01-03T01:55:06.004Z,10.30
2023-01-03T01:57:34.075Z,11.00
2023-01-03T02:00:00.598Z,9.43
2023-01-03T02:02:27.351Z,11.50
2023-01-03T02:04:56.689Z,11.07
2023-01-03T02:07:23.862Z,13.23
2023-01-03T02:09:54.928Z,11.20
2023-01-03T02:12:43.172Z,11.80
2023-01-03T02:15:21.870Z,14.13
2023-01-03T02:18:03.451Z,11.57
2023-01-03T02:20:46.820Z,14.25
2023-01-03T02:23:45.698Z,6.45
2023-01-03T02:26:30.399Z,6.63
2023-01-03T02:29:22.547Z,7.65
2023-01-03T02:31:54.852Z,9.35
2023-01-03T02:34:55.769Z,11.85
2023-01-03T02:37:40.471Z,10.88
2023-01-03T02:40:29.425Z,60.70
2023-01-03T02:43:16.268Z,76.78
2023-01-03T02:46:00.554Z,52.70
2023-01-03T02:49:04.908Z,74.93
2023-01-03T02:51:41.630Z,66.93
2023-01-03T02:54:11.752Z,26.07
2023-01-03T02:56:44.097Z,55.83
2023-01-03T02:59:15.313Z,48.90
2023-01-03T03:01:50.951Z,45.47
2023-01-03T03:04:19.654Z,62.63
2023-01-03T03:06:54.821Z,75.53
2023-01-03T03:09:21.229Z,46.65
2023-01-03T03:12:07.235Z,87.50
2023-01-03T03:14:39.178Z,80.25
2023-01-03T03:17:19.485Z,38.65
2023-01-03T03:20:06.799Z,92.20
2023-01-03T03:23:03.026Z,62.40
2023-01-03T03:25:37.341Z,96.85
2023-01-03T03:28:27.932Z,86.75
2023-01-03T03:31:02.061Z,45.88
2023-01-03T03:33:33.315Z,105.33
2023-01-03T03:36:11.124Z,170.65
2023-01-03T03:38:42.198Z,74.05
2023-01-03T03:41:57.985Z,143.75
2023-01-03T03:45:06.166Z,127.13
2023-01-03T03:47:51.317Z,169.93
2023-01-03T03:50:17.644Z,82.65
2023-01-03T03:52:47.461Z,97.10
2023-01-03T03:55:21.595Z,189.98
2023-01-03T03:58:00.844Z,225.90
2023-01-03T04:00:31.582Z,193.23
2023-01-03T04:03:01.823Z,150.10
2023-01-03T04:05:34.594Z,178.18
2023-01-03T04:08:01.045Z,186.95
2023-01-03T04:10:30.190Z,153.90
2023-01-03T04:13:01.438Z,153.70
2023-01-03T04:15:27.852Z,123.75
2023-01-03T04:17:54.451Z,132.80
2023-01-03T04:20:21.136Z,102.05
2023-01-03T04:22:47.496Z,84.65
2023-01-03T04:25:14.020Z,92.13
2023-01-03T04:27:40.408Z,152.65
2023-01-03T04:30:07.276Z,103.05
2023-01-03T04:32:33.731Z,81.95
2023-01-03T04:35:00.129Z,71.68
2023-01-03T04:37:26.593Z,55.60
2023-01-03T04:39:53.016Z,50.53
2023-01-03T04:42:38.095Z,51.15
2023-01-03T04:45:05.343Z,49.13
2023-01-03T04:47:31.873Z,36.30
2023-01-03T04:49:58.253Z,47.60
2023-01-03T04:52:24.706Z,67.97
2023-01-03T04:54:51.119Z,26.05
2023-01-03T04:57:17.485Z,35.35
2023-01-03T04:59:43.954Z,37.15
2023-01-03T05:02:10.590Z,27.97
2023-01-03T05:04:37.232Z,31.38
2023-01-03T05:07:03.686Z,28.77
2023-01-03T05:09:30.271Z,34.00
2023-01-03T05:11:56.667Z,43.67
2023-01-03T05:14:23.326Z,54.57
2023-01-03T05:16:49.932Z,51.67
2023-01-03T05:19:16.403Z,46.40
2023-01-03T05:22:01.474Z,44.00
2023-01-03T05:24:46.172Z,59.67
2023-01-03T05:27:12.801Z,58.07
2023-01-03T05:29:39.401Z,46.08
2023-01-03T05:32:05.975Z,53.08
2023-01-03T05:34:32.413Z,44.97
2023-01-03T05:36:58.834Z,32.88
2023-01-03T05:39:25.170Z,43.37
2023-01-03T05:42:00.623Z,38.17
2023-01-03T05:44:30.195Z,41.38
2023-01-03T05:47:01.478Z,37.05
2023-01-03T05:49:27.934Z,40.08
2023-01-03T05:51:54.377Z,37.27
2023-01-03T05:54:21.356Z,38.63
2023-01-03T05:56:47.790Z,32.00
2023-01-03T05:59:14.549Z,34.33
2023-01-03T06:01:41.128Z,37.53
2023-01-03T06:04:07.623Z,33.90
2023-01-03T06:06:34.279Z,31.92
2023-01-03T06:09:00.746Z,29.80
2023-01-03T06:11:27.194Z,30.08
2023-01-03T06:13:53.651Z,26.33
2023-01-03T06:16:39.218Z,26.47
2023-01-03T06:19:07.132Z,31.35
2023-01-03T06:21:34.534Z,28.05
2023-01-03T06:24:01.503Z,27.77
2023-01-03T06:26:28.264Z,29.30
2023-01-03T06:28:54.807Z,23.53
2023-01-03T06:31:21.501Z,27.50
2023-01-03T06:33:48.555Z,24.58
2023-01-03T06:36:17.817Z,29.85
2023-01-03T06:38:44.687Z,27.65
2023-01-03T06:41:12.806Z,28.07
2023-01-03T06:43:39.372Z,27.23
2023-01-03T06:46:24.952Z,25.95
2023-01-03T06:49:10.480Z,24.08
2023-01-03T06:52:02.738Z,26.15
2023-01-03T06:54:31.516Z,29.53
2023-01-03T06:56:58.575Z,24.75
2023-01-03T06:59:25.349Z,25.42
2023-01-03T07:01:53.256Z,23.67
2023-01-03T07:04:21.139Z,27.38
2023-01-03T07:06:47.739Z,24.23
2023-01-03T07:09:14.871Z,26.13
2023-01-03T07:11:42.267Z,26.77
2023-01-03T07:14:10.352Z,30.08
2023-01-03T07:16:42.073Z,22.55
2023-01-03T07:19:12.932Z,23.73
2023-01-03T07:21:39.749Z,27.10
2023-01-03T07:24:07.899Z,21.92
2023-01-03T07:26:35.791Z,25.30
2023-01-03T07:29:05.611Z,21.02
2023-01-03T07:31:34.790Z,19.00
2023-01-03T07:34:01.725Z,22.63
2023-01-03T07:36:28.390Z,23.73
2023-01-03T07:38:55.988Z,19.58
2023-01-03T07:41:22.544Z,19.75
2023-01-03T07:43:49.994Z,22.53
2023-01-03T07:46:23.521Z,18.42
2023-01-03T07:48:52.743Z,20.83
2023-01-03T07:51:21.334Z,21.40
2023-01-03T07:53:52.520Z,17.60
2023-01-03T07:56:20.346Z,20.90
2023-01-03T07:58:48.085Z,21.13
2023-01-03T08:01:24.125Z,24.58
2023-01-03T08:03:50.950Z,18.35
2023-01-03T08:06:23.120Z,20.63
2023-01-03T08:09:10.071Z,20.07
2023-01-03T08:11:55.456Z,15.30
2023-01-03T08:14:26.113Z,13.93
2023-01-03T08:16:53.546Z,13.30
2023-01-03T08:19:20.047Z,15.55
2023-01-03T08:21:46.476Z,19.43
2023-01-03T08:24:13.050Z,13.98
2023-01-03T08:26:39.477Z,14.88
2023-01-03T08:29:06.758Z,16.52
2023-01-03T08:31:39.030Z,14.52
2023-01-03T08:34:13.807Z,16.20
2023-01-03T08:36:49.663Z,14.52
2023-01-03T08:39:20.411Z,17.17
2023-01-03T08:41:59.194Z,14.43
2023-01-03T08:44:26.107Z,15.48
2023-01-03T08:46:55.804Z,15.40
2023-01-03T08:49:22.464Z,13.07
2023-01-03T08:51:49.118Z,13.25
2023-01-03T08:54:15.551Z,12.85
2023-01-03T08:56:42.141Z,14.90
2023-01-03T08:59:08.613Z,11.23
2023-01-03T09:01:35.314Z,19.27
2023-01-03T09:04:02.261Z,14.52
2023-01-03T09:06:28.765Z,16.10
2023-01-03T09:08:55.167Z,15.77
2023-01-03T09:11:21.658Z,19.23
2023-01-03T09:13:48.120Z,14.45
2023-01-03T09:16:16.477Z,16.08
2023-01-03T09:18:43.163Z,16.50
2023-01-03T09:21:09.747Z,13.93
2023-01-03T09:23:38.022Z,14.47
2023-01-03T09:26:05.405Z,18.02
2023-01-03T09:28:32.089Z,15.18
2023-01-03T09:30:58.792Z,16.42
2023-01-03T09:33:25.751Z,17.55
2023-01-03T09:35:54.213Z,20.63
2023-01-03T09:38:21.951Z,21.98
2023-01-03T09:40:58.052Z,19.13
2023-01-03T09:43:27.337Z,20.10
2023-01-03T09:45:56.585Z,20.23
2023-01-03T09:48:29.997Z,20.53
2023-01-03T09:51:18.439Z,16.70
2023-01-03T09:54:01.684Z,27.15
2023-01-03T09:56:46.631Z,25.35
2023-01-03T09:59:35.226Z,24.85
2023-01-03T10:02:53.038Z,21.30
2023-01-03T10:05:37.968Z,24.02
2023-01-03T10:08:38.590Z,22.80
2023-01-03T10:11:09.324Z,26.25
2023-01-03T10:13:50.877Z,21.67
2023-01-03T10:16:26.402Z,22.17
2023-01-03T10:19:14.712Z,21.55
2023-01-03T10:21:53.200Z,28.48
2023-01-03T10:24:29.219Z,25.45
2023-01-03T10:27:12.358Z,20.52
2023-01-03T10:29:39.026Z,32.10
2023-01-03T10:32:22.791Z,22.85
2023-01-03T10:35:08.241Z,27.85
2023-01-03T10:37:34.661Z,25.80
2023-01-03T10:40:05.317Z,22.83
2023-01-03T10:42:34.910Z,21.30
2023-01-03T10:45:05.767Z,22.77
2023-01-03T10:47:32.200Z,19.98
2023-01-03T10:50:03.608Z,22.08
2023-01-03T10:52:39.421Z,22.73
2023-01-03T10:57:46.055Z,26.75
2023-01-03T11:00:23.849Z,26.50
2023-01-03T11:02:51.136Z,23.17
2023-01-03T11:05:23.878Z,27.10
2023-01-03T11:07:56.334Z,29.60
2023-01-03T11:10:24.747Z,24.55
2023-01-03T11:12:51.287Z,21.50
2023-01-03T11:15:38.341Z,23.75
2023-01-03T11:18:16.183Z,23.90
2023-01-03T11:21:08.783Z,25.70
2023-01-03T11:23:54.215Z,21.35
2023-01-03T11:26:51.447Z,24.67
2023-01-03T11:29:39.774Z,23.17
2023-01-03T11:32:29.243Z,20.55
2023-01-03T11:35:25.335Z,20.90
2023-01-03T11:37:58.060Z,22.60
2023-01-03T11:41:06.670Z,21.05
2023-01-03T11:43:45.779Z,20.90
2023-01-03T11:46:18.502Z,20.17
2023-01-03T11:49:29.582Z,19.37
2023-01-03T11:52:29.924Z,19.88
2023-01-03T11:55:05.000Z,21.50
2023-01-03T11:57:40.389Z,23.40
2023-01-03T12:00:15.824Z,20.92
2023-01-03T12:03:02.921Z,20.93
2023-01-03T12:06:16.082Z,19.50
2023-01-03T12:08:53.530Z,18.90
2023-01-03T12:11:46.889Z,20.67
2023-01-03T12:14:16.559Z,23.60
2023-01-03T12:16:53.048Z,23.30
2023-01-03T12:19:25.539Z,21.45
2023-01-03T12:22:04.102Z,20.73
2023-01-03T12:25:05.859Z,18.65
2023-01-03T12:27:52.703Z,17.50
2023-01-03T12:30:19.062Z,17.17
2023-01-03T12:32:55.021Z,17.42
2023-01-03T12:35:38.227Z,19.67
2023-01-03T12:38:06.242Z,17.40
2023-01-03T12:40:43.673Z,18.50
2023-01-03T12:43:42.812Z,12.70
2023-01-03T12:46:22.212Z,19.42
2023-01-03T12:48:58.537Z,18.80
2023-01-03T12:51:25.464Z,16.73
2023-01-03T12:54:16.520Z,15.77
2023-01-03T12:57:03.949Z,15.20
2023-01-03T12:59:55.045Z,22.50
2023-01-03T13:02:38.861Z,19.25
2023-01-03T13:05:33.340Z,19.05
2023-01-03T13:08:23.342Z,13.25
2023-01-03T13:10:54.913Z,13.57
2023-01-03T13:13:21.835Z,13.52
2023-01-03T13:15:48.731Z,13.95
2023-01-03T13:18:20.944Z,12.05
2023-01-03T13:20:50.362Z,12.30
2023-01-03T13:23:29.154Z,10.27
2023-01-03T13:26:10.155Z,7.32
2023-01-03T13:28:37.687Z,9.68
2023-01-03T13:31:14.297Z,8.63
2023-01-03T13:34:19.298Z,8.52
2023-01-03T13:37:05.645Z,9.30
2023-01-03T13:39:50.460Z,7.28
2023-01-03T13:42:36.672Z,10.52
2023-01-03T13:45:15.237Z,7.65
2023-01-03T13:47:42.862Z,7.38
2023-01-03T13:50:23.321Z,7.27
2023-01-03T13:53:24.912Z,9.60
2023-01-03T13:55:59.912Z,7.53
2023-01-03T13:58:42.720Z,6.38
2023-01-03T14:01:37.570Z,7.57
2023-01-03T14:04:41.254Z,9.30
2023-01-03T14:07:39.277Z,7.07
2023-01-03T14:10:17.566Z,6.13
2023-01-03T14:13:13.455Z,8.27
2023-01-03T14:15:39.939Z,6.38
2023-01-03T14:18:28.513Z,9.60
2023-01-03T14:20:58.248Z,7.50
2023-01-03T14:26:19.339Z,6.38
2023-01-03T14:28:49.439Z,5.90
2023-01-03T14:31:21.902Z,9.83
2023-01-03T14:34:03.483Z,5.65
2023-01-03T14:36:30.086Z,7.13
2023-01-03T14:38:57.586Z,9.20
2023-01-03T14:41:30.626Z,4.90
2023-01-03T14:44:07.954Z,7.07
2023-01-03T14:46:35.960Z,7.20
2023-01-03T14:49:07.442Z,4.57
2023-01-03T14:51:35.656Z,7.18
2023-01-03T14:54:04.144Z,5.70
2023-01-03T14:56:31.242Z,7.07
2023-01-03T14:58:58.312Z,8.25
2023-01-03T15:01:25.209Z,8.27
2023-01-03T15:03:52.369Z,5.63
2023-01-03T15:06:31.542Z,11.00
2023-01-03T15:09:18.649Z,6.73
2023-01-03T15:11:59.251Z,12.40
2023-01-03T15:14:31.342Z,4.93
2023-01-03T15:17:04.254Z,9.13
2023-01-03T15:19:31.875Z,5.57
2023-01-03T15:22:20.159Z,7.17
2023-01-03T15:24:49.854Z,8.20
2023-01-03T15:27:38.225Z,8.18
2023-01-03T15:30:22.214Z,6.75
2023-01-03T15:32:54.649Z,8.23
2023-01-03T15:35:36.121Z,5.67
2023-01-03T15:38:06.210Z,12.43
2023-01-03T15:40:33.364Z,7.85
2023-01-03T15:43:21.654Z,8.95
2023-01-03T15:46:13.587Z,4.57
2023-01-03T15:48:44.742Z,6.50
2023-01-03T15:51:11.167Z,9.75
2023-01-03T15:53:44.336Z,8.15
2023-01-03T15:56:23.731Z,8.40
2023-01-03T15:58:53.313Z,11.40
2023-01-03T16:01:21.034Z,4.90
2023-01-03T16:03:49.584Z,5.93
2023-01-03T16:06:16.547Z,7.25
2023-01-03T16:08:43.175Z,5.03
2023-01-03T16:11:18.411Z,7.85
2023-01-03T16:13:52.152Z,9.77
2023-01-03T16:16:26.599Z,8.77
2023-01-03T16:18:54.597Z,8.18
2023-01-03T16:21:22.045Z,6.68
2023-01-03T16:23:48.749Z,10.45
2023-01-03T16:26:16.235Z,7.27
2023-01-03T16:28:42.869Z,8.02
2023-01-03T16:31:14.249Z,7.47
2023-01-03T16:33:42.435Z,9.63
2023-01-03T16:36:31.933Z,4.78
2023-01-03T16:38:59.337Z,9.50
2023-01-03T16:41:26.271Z,7.93
2023-01-03T16:43:53.287Z,9.35
2023-01-03T16:46:25.404Z,7.72
2023-01-03T16:48:54.063Z,5.28
2023-01-03T16:51:24.990Z,7.30
2023-01-03T16:53:54.809Z,8.27
2023-01-03T16:56:21.706Z,7.93
2023-01-03T16:58:48.442Z,10.18
2023-01-03T17:01:14.925Z,7.55
2023-01-03T17:03:42.173Z,3.90
2023-01-03T17:06:37.621Z,7.43
2023-01-03T17:09:11.047Z,8.40
2023-01-03T17:11:37.816Z,8.55
2023-01-03T17:14:04.341Z,5.20
2023-01-03T17:16:32.760Z,5.33
2023-01-03T17:19:01.965Z,11.80
2023-01-03T17:21:35.278Z,3.35
2023-01-03T17:24:04.894Z,7.85
2023-01-03T17:26:33.364Z,10.55
2023-01-03T17:29:01.834Z,6.93
2023-01-03T17:31:28.972Z,5.28
2023-01-03T17:33:55.537Z,12.93
2023-01-03T17:36:32.782Z,7.47
2023-01-03T17:39:03.258Z,4.30
2023-01-03T17:41:30.788Z,7.47
2023-01-03T17:43:57.238Z,6.85
2023-01-03T17:46:45.482Z,8.02
2023-01-03T17:49:26.150Z,6.30
2023-01-03T17:51:55.570Z,9.88
2023-01-03T17:54:26.391Z,8.00
2023-01-03T17:56:53.070Z,5.05
2023-01-03T17:59:19.513Z,7.65
2023-01-03T18:01:46.439Z,9.70
2023-01-03T18:04:13.071Z,5.72
2023-01-03T18:06:39.972Z,6.93
2023-01-03T18:09:15.308Z,4.55
2023-01-03T18:11:41.934Z,10.52
2023-01-03T18:14:16.493Z,8.45
2023-01-03T18:16:43.503Z,5.90
2023-01-03T18:19:10.212Z,6.13
2023-01-03T18:21:37.630Z,12.75
2023-01-03T18:24:10.162Z,11.13
2023-01-03T18:26:40.914Z,4.10
2023-01-03T18:29:08.101Z,9.85
2023-01-03T18:31:34.705Z,10.83
2023-01-03T18:34:04.230Z,8.70
2023-01-03T18:36:38.752Z,7.72
2023-01-03T18:39:14.236Z,8.30
2023-01-03T18:41:41.762Z,4.95
2023-01-03T18:44:24.763Z,7.57
2023-01-03T18:46:51.957Z,6.30
2023-01-03T18:49:18.858Z,5.80
2023-01-03T18:51:48.244Z,11.55
2023-01-03T18:54:18.825Z,8.98
2023-01-03T18:56:45.725Z,8.83
2023-01-03T18:59:25.325Z,9.80
2023-01-03T19:01:52.953Z,9.68
2023-01-03T19:04:20.806Z,6.82
2023-01-03T19:06:51.941Z,6.75
2023-01-03T19:09:24.541Z,7.00
2023-01-03T19:11:53.348Z,8.27
2023-01-03T19:14:19.973Z,8.18
2023-01-03T19:16:46.499Z,7.78
2023-01-03T19:19:12.977Z,6.32
2023-01-03T19:21:41.877Z,8.67
2023-01-03T19:24:38.578Z,8.27
2023-01-03T19:27:17.638Z,8.00
2023-01-03T19:29:44.708Z,3.90
2023-01-03T19:32:19.989Z,4.90
2023-01-03T19:34:46.447Z,7.53
2023-01-03T19:37:13.070Z,5.05
2023-01-03T19:39:39.769Z,12.18
2023-01-03T19:42:30.872Z,8.30
2023-01-03T19:44:59.336Z,5.65
2023-01-03T19:47:26.156Z,7.83
2023-01-03T19:49:52.633Z,7.97
2023-01-03T19:52:19.073Z,6.10
2023-01-03T19:54:45.629Z,5.55
2023-01-03T19:57:22.677Z,5.20
2023-01-03T19:59:53.699Z,7.80
2023-01-03T20:02:32.446Z,5.50
2023-01-03T20:04:59.996Z,7.80
2023-01-03T20:07:26.689Z,6.85
2023-01-03T20:09:53.204Z,8.35
2023-01-03T20:12:25.201Z,4.43
2023-01-03T20:14:54.805Z,4.40
2023-01-03T20:17:23.211Z,6.32
2023-01-03T20:19:50.041Z,5.55
2023-01-03T20:22:37.690Z,6.38
2023-01-03T20:25:13.420Z,3.00
2023-01-03T20:27:44.496Z,9.05
2023-01-03T20:30:19.499Z,7.78
2023-01-03T20:32:45.971Z,5.68
2023-01-03T20:38:03.717Z,6.03
2023-01-03T20:40:30.219Z,5.43
2023-01-03T20:42:58.226Z,8.10
2023-01-03T20:45:24.772Z,5.90
2023-01-03T20:47:53.050Z,5.72
2023-01-03T20:50:25.030Z,7.50
2023-01-03T20:52:51.618Z,6.22
2023-01-03T20:55:20.705Z,5.10
2023-01-03T20:57:48.135Z,6.78
2023-01-03T21:00:34.220Z,7.03
2023-01-03T21:03:00.868Z,5.10
2023-01-03T21:05:27.417Z,7.25
2023-01-03T21:08:12.512Z,7.72
2023-01-03T21:10:42.017Z,4.25
2023-01-03T21:13:09.670Z,5.90
2023-01-03T21:15:37.063Z,6.40
2023-01-03T21:18:05.028Z,6.13
2023-01-03T21:20:32.703Z,7.18
2023-01-03T21:22:59.467Z,3.25
2023-01-03T21:25:34.852Z,3.35
2023-01-03T21:28:02.498Z,8.63
2023-01-03T21:30:31.351Z,7.15
2023-01-03T21:32:59.449Z,6.13
2023-01-03T21:35:25.925Z,5.05
2023-01-03T21:37:53.924Z,7.50
2023-01-03T21:40:23.307Z,3.63
2023-01-03T21:43:03.597Z,9.57
2023-01-03T21:45:39.540Z,5.70
2023-01-03T21:48:09.788Z,7.72
2023-01-03T21:50:42.194Z,4.25
2023-01-03T21:53:22.963Z,6.47
2023-01-03T21:55:50.273Z,8.77
2023-01-03T21:58:19.020Z,3.75
2023-01-03T22:00:45.869Z,6.65
2023-01-03T22:03:33.109Z,5.32
2023-01-03T22:06:06.983Z,4.40
2023-01-03T22:08:34.329Z,8.75
2023-01-03T22:11:00.830Z,5.75
2023-01-03T22:13:27.337Z,6.40
2023-01-03T22:15:54.054Z,4.20
2023-01-03T22:18:20.556Z,3.83
2023-01-03T22:20:46.918Z,4.30
2023-01-03T22:23:14.130Z,2.95
2023-01-03T22:25:40.676Z,7.05
2023-01-03T22:28:07.190Z,5.72
2023-01-03T22:30:33.705Z,5.03
2023-01-03T22:33:00.154Z,7.40
2023-01-03T22:35:26.559Z,9.32
2023-01-03T22:37:56.714Z,6.22
2023-01-03T22:40:23.301Z,4.35
2023-01-03T22:42:49.780Z,3.10
2023-01-03T22:45:16.651Z,3.25
2023-01-03T22:47:43.202Z,6.32
2023-01-03T22:50:10.637Z,4.72
2023-01-03T22:52:38.299Z,4.72
2023-01-03T22:55:05.414Z,5.47
2023-01-03T22:57:31.847Z,8.27
2023-01-03T22:59:58.254Z,4.20
2023-01-03T23:02:28.720Z,7.65
2023-01-03T23:04:56.001Z,7.43
2023-01-03T23:07:22.415Z,7.47
2023-01-03T23:09:48.912Z,6.72
2023-01-03T23:12:34.048Z,5.13
2023-01-03T23:15:00.531Z,5.50
2023-01-03T23:17:45.282Z,6.63
2023-01-03T23:20:11.919Z,5.80
2023-01-03T23:22:38.470Z,4.40
2023-01-03T23:25:05.246Z,3.67
2023-01-03T23:27:31.724Z,5.45
2023-01-03T23:29:58.230Z,3.38
2023-01-03T23:32:24.705Z,6.90
2023-01-03T23:34:51.203Z,3.92
2023-01-03T23:37:17.595Z,5.88
2023-01-03T23:39:44.187Z,5.88
2023-01-03T23:42:10.927Z,6.40
2023-01-03T23:44:37.457Z,3.60
2023-01-03T23:47:11.156Z,7.10
2023-01-03T23:49:39.027Z,5.68
2023-01-03T23:52:05.630Z,4.30
2023-01-03T23:54:32.018Z,5.55
2023-01-03T23:56:58.470Z,5.70
2023-01-03T23:59:24.912Z,4.28
